createdAt,value
2018-08-03T00:00:46.756Z,4.43
2018-08-03T00:05:50.561Z,4.50
2018-08-03T00:10:54.000Z,4.20
2018-08-03T00:15:58.670Z,3.60
2018-08-03T00:21:02.262Z,4.20
2018-08-03T00:26:05.850Z,4.27
2018-08-03T00:31:08.708Z,3.70
2018-08-03T00:36:11.660Z,4.50
2018-08-03T00:41:14.744Z,3.17
2018-08-03T00:46:18.748Z,3.97
2018-08-03T00:51:22.123Z,2.93
2018-08-03T00:56:25.429Z,4.30
2018-08-03T01:01:28.754Z,5.57
2018-08-03T01:06:31.857Z,4.07
2018-08-03T01:11:34.984Z,3.87
2018-08-03T01:16:40.788Z,4.03
2018-08-03T01:21:44.880Z,4.17
2018-08-03T01:26:48.049Z,4.03
2018-08-03T01:31:51.432Z,4.43
2018-08-03T01:36:54.631Z,4.43
2018-08-03T01:41:57.789Z,3.90
2018-08-03T01:47:01.672Z,4.20
2018-08-03T01:52:04.854Z,4.20
2018-08-03T01:57:08.200Z,4.70
2018-08-03T02:02:11.519Z,4.50
2018-08-03T02:07:14.675Z,4.87
2018-08-03T02:12:18.166Z,4.13
2018-08-03T02:17:21.093Z,4.97
2018-08-03T02:22:24.194Z,4.00
2018-08-03T02:27:27.513Z,4.50
2018-08-03T02:32:30.690Z,4.33
2018-08-03T02:37:34.090Z,4.60
2018-08-03T02:42:37.672Z,4.57
2018-08-03T02:47:40.837Z,4.87
2018-08-03T02:52:44.125Z,4.00
2018-08-03T02:57:47.812Z,3.87
2018-08-03T03:02:51.144Z,4.10
2018-08-03T03:07:54.465Z,4.80
2018-08-03T03:12:58.094Z,4.40
2018-08-03T03:18:01.161Z,4.60
2018-08-03T03:23:04.563Z,4.43
2018-08-03T03:28:09.163Z,3.93
2018-08-03T03:33:12.907Z,4.30
2018-08-03T03:38:16.797Z,4.47
2018-08-03T03:43:20.301Z,3.63
2018-08-03T03:48:24.256Z,4.40
2018-08-03T03:53:27.188Z,3.70
2018-08-03T03:58:30.677Z,4.20
2018-08-03T04:03:33.599Z,4.27
2018-08-03T04:08:36.817Z,4.40
2018-08-03T04:13:39.741Z,4.80
2018-08-03T04:18:43.499Z,4.77
2018-08-03T04:23:54.715Z,4.60
2018-08-03T04:28:58.700Z,4.50
2018-08-03T04:34:01.658Z,5.60
2018-08-03T04:39:06.433Z,3.47
2018-08-03T04:44:09.828Z,4.90
2018-08-03T04:49:13.547Z,3.93
2018-08-03T04:54:17.644Z,4.50
2018-08-03T04:59:20.602Z,10.20
2018-08-03T05:04:23.899Z,11.33
2018-08-03T05:09:26.945Z,12.40
2018-08-03T05:14:29.860Z,11.33
2018-08-03T05:19:32.753Z,6.00
2018-08-03T05:24:36.018Z,4.80
2018-08-03T05:29:43.782Z,4.33
2018-08-03T05:34:47.919Z,5.40
2018-08-03T05:39:51.519Z,3.83
2018-08-03T05:44:54.534Z,4.20
2018-08-03T05:49:57.493Z,9.50
2018-08-03T05:55:00.638Z,9.13
2018-08-03T06:00:05.200Z,7.33
2018-08-03T06:05:08.498Z,6.70
2018-08-03T06:10:11.376Z,3.83
2018-08-03T06:15:14.267Z,8.87
2018-08-03T06:20:17.126Z,10.17
2018-08-03T06:25:20.297Z,9.10
2018-08-03T06:30:23.547Z,6.57
2018-08-03T06:35:26.446Z,7.40
2018-08-03T06:40:29.311Z,8.00
2018-08-03T06:45:32.183Z,7.67
2018-08-03T06:50:35.063Z,6.80
2018-08-03T06:55:38.287Z,6.10
2018-08-03T07:00:41.943Z,3.93
2018-08-03T07:05:51.147Z,3.93
2018-08-03T07:10:55.124Z,5.50
2018-08-03T07:15:58.100Z,5.10
2018-08-03T07:21:00.972Z,5.73
2018-08-03T07:26:03.927Z,4.80
2018-08-03T07:31:07.581Z,5.07
2018-08-03T07:36:10.868Z,4.97
2018-08-03T07:41:13.823Z,4.60
2018-08-03T07:46:22.108Z,5.30
2018-08-03T07:51:25.928Z,5.60
2018-08-03T07:56:28.996Z,5.00
2018-08-03T08:01:32.228Z,5.70
2018-08-03T08:06:35.135Z,5.43
2018-08-03T08:11:38.083Z,4.63
2018-08-03T08:16:41.049Z,4.07
2018-08-03T08:21:43.991Z,4.43
2018-08-03T08:26:46.917Z,3.57
2018-08-03T08:31:50.476Z,4.17
2018-08-03T08:36:53.405Z,4.20
2018-08-03T08:41:56.375Z,4.33
2018-08-03T08:46:59.283Z,4.40
2018-08-03T08:52:02.391Z,5.40
2018-08-03T08:57:05.700Z,5.87
2018-08-03T09:02:08.693Z,2.90
2018-08-03T09:07:11.755Z,4.40
2018-08-03T09:12:14.648Z,5.67
2018-08-03T09:17:17.562Z,5.97
2018-08-03T09:22:20.475Z,5.27
2018-08-03T09:27:23.446Z,3.53
2018-08-03T09:32:26.983Z,6.87
2018-08-03T09:37:30.165Z,5.40
2018-08-03T09:42:33.100Z,4.83
2018-08-03T09:47:36.239Z,5.10
2018-08-03T09:52:39.193Z,2.93
2018-08-03T09:57:42.268Z,3.93
2018-08-03T10:02:45.890Z,3.50
2018-08-03T10:07:49.174Z,4.97
2018-08-03T10:12:52.045Z,4.50
2018-08-03T10:17:55.187Z,4.97
2018-08-03T10:22:58.811Z,4.40
2018-08-03T10:28:01.712Z,4.70
2018-08-03T10:33:05.150Z,4.30
2018-08-03T10:38:08.675Z,4.00
2018-08-03T10:43:11.792Z,4.30
2018-08-03T10:48:14.669Z,5.47
2018-08-03T10:53:17.540Z,5.20
2018-08-03T10:58:20.473Z,4.67
2018-08-03T11:03:23.548Z,3.60
2018-08-03T11:08:27.035Z,4.53
2018-08-03T11:13:29.966Z,3.40
2018-08-03T11:18:32.875Z,4.57
2018-08-03T11:23:35.764Z,4.13
2018-08-03T11:28:38.616Z,4.20
2018-08-03T11:33:41.962Z,4.20
2018-08-03T11:38:45.095Z,3.40
2018-08-03T11:43:48.332Z,4.07
2018-08-03T11:48:51.789Z,3.73
2018-08-03T11:53:54.890Z,4.20
2018-08-03T11:58:57.791Z,3.20
2018-08-03T12:04:00.851Z,3.50
2018-08-03T12:09:04.728Z,3.10
2018-08-03T12:14:07.847Z,3.40
2018-08-03T12:19:10.767Z,2.43
2018-08-03T12:24:13.629Z,2.80
2018-08-03T12:29:17.317Z,3.17
2018-08-03T12:34:21.154Z,2.87
2018-08-03T12:39:24.053Z,2.60
2018-08-03T12:44:27.278Z,1.83
2018-08-03T12:49:35.789Z,2.00
2018-08-03T12:54:43.768Z,2.63
2018-08-03T12:59:47.405Z,2.13
2018-08-03T13:04:50.287Z,1.50
2018-08-03T13:09:53.162Z,1.23
2018-08-03T13:14:56.131Z,1.67
2018-08-03T13:19:59.048Z,1.23
2018-08-03T13:25:02.052Z,1.23
2018-08-03T13:30:05.965Z,1.30
2018-08-03T13:35:09.069Z,1.17
2018-08-03T13:40:12.202Z,1.40
2018-08-03T13:45:15.123Z,1.40
2018-08-03T13:50:18.349Z,1.40
2018-08-03T13:55:21.224Z,1.20
2018-08-03T14:00:24.757Z,2.20
2018-08-03T14:05:27.940Z,1.20
2018-08-03T14:10:32.507Z,1.60
2018-08-03T14:15:35.381Z,1.20
2018-08-03T14:20:38.926Z,1.03
2018-08-03T14:25:41.828Z,1.43
2018-08-03T14:30:45.008Z,1.10
2018-08-03T14:35:48.463Z,1.20
2018-08-03T14:40:51.426Z,1.33
2018-08-03T14:45:54.327Z,1.00
2018-08-03T14:51:03.968Z,1.43
2018-08-03T14:56:13.458Z,1.03
2018-08-03T15:01:19.126Z,1.53
2018-08-03T15:06:22.042Z,1.17
2018-08-03T15:11:24.936Z,1.30
2018-08-03T15:16:27.845Z,1.43
2018-08-03T15:21:31.264Z,1.60
2018-08-03T15:26:34.416Z,1.97
2018-08-03T15:31:37.582Z,1.47
2018-08-03T15:36:40.735Z,1.50
2018-08-03T15:41:43.848Z,1.80
2018-08-03T15:46:46.729Z,2.00
2018-08-03T15:51:49.716Z,1.70
2018-08-03T15:56:52.988Z,1.80
2018-08-03T16:01:56.214Z,1.70
2018-08-03T16:06:59.105Z,1.83
2018-08-03T16:12:02.021Z,1.60
2018-08-03T16:17:04.934Z,1.60
2018-08-03T16:22:07.935Z,1.70
2018-08-03T16:27:11.368Z,1.70
2018-08-03T16:32:14.333Z,1.90
2018-08-03T16:37:17.508Z,1.57
2018-08-03T16:42:20.383Z,1.50
2018-08-03T16:47:23.292Z,2.10
2018-08-03T16:52:26.408Z,1.83
2018-08-03T16:57:29.242Z,2.00
2018-08-03T17:02:32.264Z,1.67
2018-08-03T17:07:38.636Z,1.83
2018-08-03T17:12:42.029Z,1.73
2018-08-03T17:18:02.214Z,1.67
2018-08-03T17:23:14.113Z,1.33
2018-08-03T17:28:17.868Z,1.70
2018-08-03T17:33:21.233Z,1.53
2018-08-03T17:38:24.396Z,1.70
2018-08-03T17:43:27.281Z,1.70
2018-08-03T17:48:31.030Z,1.90
2018-08-03T17:53:33.926Z,1.13
2018-08-03T17:58:36.770Z,1.40
2018-08-03T18:03:40.275Z,1.60
2018-08-03T18:08:43.652Z,1.57
2018-08-03T18:13:46.954Z,1.50
2018-08-03T18:18:51.598Z,1.20
2018-08-03T18:23:56.064Z,2.43
2018-08-03T18:28:59.317Z,1.97
2018-08-03T18:34:02.673Z,1.77
2018-08-03T18:39:07.754Z,1.60
2018-08-03T18:44:12.214Z,1.67
2018-08-03T18:49:18.820Z,1.90
2018-08-03T18:54:24.179Z,2.00
2018-08-03T18:59:28.780Z,1.37
2018-08-03T19:04:34.407Z,1.90
2018-08-03T19:09:44.783Z,2.00
2018-08-03T19:14:50.991Z,2.03
2018-08-03T19:19:54.357Z,1.63
2018-08-03T19:24:58.931Z,1.97
2018-08-03T19:30:02.201Z,2.37
2018-08-03T19:35:05.197Z,1.97
2018-08-03T19:40:08.244Z,2.20
2018-08-03T19:45:11.453Z,1.90
2018-08-03T19:50:14.581Z,2.07
2018-08-03T19:55:17.907Z,2.33
2018-08-03T20:00:20.797Z,2.03
2018-08-03T20:05:23.687Z,2.13
2018-08-03T20:10:26.760Z,2.17
2018-08-03T20:15:31.398Z,2.60
2018-08-03T20:20:36.572Z,2.67
2018-08-03T20:25:41.021Z,3.00
2018-08-03T20:30:44.572Z,3.03
2018-08-03T20:35:47.680Z,2.87
2018-08-03T20:40:51.247Z,2.50
2018-08-03T20:45:54.086Z,3.10
2018-08-03T20:50:56.960Z,3.17
2018-08-03T20:56:00.280Z,3.30
2018-08-03T21:01:03.504Z,2.57
2018-08-03T21:06:07.324Z,1.77
2018-08-03T21:11:10.369Z,1.70
2018-08-03T21:16:13.376Z,2.20
2018-08-03T21:21:16.652Z,2.00
2018-08-03T21:26:19.787Z,2.40
2018-08-03T21:31:22.746Z,1.80
2018-08-03T21:36:26.009Z,2.60
2018-08-03T21:41:29.688Z,2.07
2018-08-03T21:46:32.961Z,1.60
2018-08-03T21:51:36.063Z,1.90
2018-08-03T21:56:39.173Z,1.97
2018-08-03T22:01:42.234Z,2.03
2018-08-03T22:06:45.465Z,7.37
2018-08-03T22:11:49.003Z,4.23
2018-08-03T22:16:52.428Z,4.53
2018-08-03T22:21:55.942Z,4.17
2018-08-03T22:26:59.243Z,3.80
2018-08-03T22:32:02.684Z,3.50
2018-08-03T22:37:17.160Z,4.67
2018-08-03T22:42:22.122Z,3.67
2018-08-03T22:47:25.711Z,2.70
2018-08-03T22:52:33.402Z,2.30
2018-08-03T23:02:59.487Z,3.40
2018-08-03T23:08:03.064Z,3.60
2018-08-03T23:13:06.731Z,4.00
2018-08-03T23:18:10.059Z,2.90
2018-08-03T23:23:13.296Z,3.13
2018-08-03T23:28:16.276Z,3.47
2018-08-03T23:33:19.430Z,2.73
2018-08-03T23:38:22.343Z,3.80
2018-08-03T23:43:25.297Z,7.47
2018-08-03T23:48:28.827Z,7.17
2018-08-03T23:53:32.260Z,4.07
2018-08-03T23:58:35.458Z,5.03
